sensor_id;sensor_type;location;lat;lon;timestamp;P1;durP1;ratioP1;P2;durP2;ratioP2
317;SDS011;146;53.448;10.228;2024-02-21T00:02:20;25.13;;;19.33;;
317;SDS011;146;53.448;10.228;2024-02-21T00:05:08;28.27;;;18.20;;
317;SDS011;146;53.448;10.228;2024-02-21T00:07:55;29.50;;;19.30;;
317;SDS011;146;53.448;10.228;2024-02-21T00:10:42;27.20;;;18.10;;
317;SDS011;146;53.448;10.228;2024-02-21T00:13:29;24.00;;;17.87;;
317;SDS011;146;53.448;10.228;2024-02-21T00:16:16;26.10;;;18.00;;
317;SDS011;146;53.448;10.228;2024-02-21T00:19:05;22.03;;;17.00;;
317;SDS011;146;53.448;10.228;2024-02-21T00:21:52;27.33;;;18.80;;
317;SDS011;146;53.448;10.228;2024-02-21T00:24:39;23.77;;;17.77;;
317;SDS011;146;53.448;10.228;2024-02-21T00:27:30;26.73;;;17.40;;
317;SDS011;146;53.448;10.228;2024-02-21T00:30:17;23.33;;;17.07;;
317;SDS011;146;53.448;10.228;2024-02-21T00:33:04;20.90;;;17.93;;
317;SDS011;146;53.448;10.228;2024-02-21T00:35:53;27.27;;;17.70;;
317;SDS011;146;53.448;10.228;2024-02-21T00:38:40;25.73;;;18.00;;
317;SDS011;146;53.448;10.228;2024-02-21T00:41:27;21.47;;;17.10;;
317;SDS011;146;53.448;10.228;2024-02-21T00:44:14;23.87;;;18.93;;
317;SDS011;146;53.448;10.228;2024-02-21T00:47:01;25.73;;;19.40;;
317;SDS011;146;53.448;10.228;2024-02-21T00:49:48;25.97;;;18.87;;
317;SDS011;146;53.448;10.228;2024-02-21T00:52:37;25.77;;;18.03;;
317;SDS011;146;53.448;10.228;2024-02-21T00:55:24;26.73;;;17.63;;
317;SDS011;146;53.448;10.228;2024-02-21T00:58:11;26.93;;;20.53;;
317;SDS011;146;53.448;10.228;2024-02-21T01:00:58;29.40;;;18.50;;
317;SDS011;146;53.448;10.228;2024-02-21T01:03:46;30.40;;;18.87;;
317;SDS011;146;53.448;10.228;2024-02-21T01:06:33;23.70;;;19.17;;
317;SDS011;146;53.448;10.228;2024-02-21T01:09:22;21.87;;;17.67;;
317;SDS011;146;53.448;10.228;2024-02-21T01:12:09;27.77;;;18.40;;
317;SDS011;146;53.448;10.228;2024-02-21T01:14:56;21.17;;;18.23;;
317;SDS011;146;53.448;10.228;2024-02-21T01:17:43;22.30;;;19.10;;
317;SDS011;146;53.448;10.228;2024-02-21T01:20:30;27.87;;;21.07;;
317;SDS011;146;53.448;10.228;2024-02-21T01:23:17;29.13;;;19.43;;
317;SDS011;146;53.448;10.228;2024-02-21T01:26:06;26.53;;;20.33;;
317;SDS011;146;53.448;10.228;2024-02-21T01:28:53;24.93;;;19.83;;
317;SDS011;146;53.448;10.228;2024-02-21T01:31:40;29.07;;;19.67;;
317;SDS011;146;53.448;10.228;2024-02-21T01:34:27;27.23;;;20.30;;
317;SDS011;146;53.448;10.228;2024-02-21T01:37:14;29.87;;;19.77;;
317;SDS011;146;53.448;10.228;2024-02-21T01:40:02;26.10;;;21.47;;
317;SDS011;146;53.448;10.228;2024-02-21T01:42:51;24.73;;;20.40;;
317;SDS011;146;53.448;10.228;2024-02-21T01:45:40;25.10;;;20.17;;
317;SDS011;146;53.448;10.228;2024-02-21T01:48:27;26.30;;;20.40;;
317;SDS011;146;53.448;10.228;2024-02-21T01:51:14;26.10;;;20.13;;
317;SDS011;146;53.448;10.228;2024-02-21T01:54:02;25.73;;;20.97;;
317;SDS011;146;53.448;10.228;2024-02-21T01:56:49;33.13;;;21.60;;
317;SDS011;146;53.448;10.228;2024-02-21T01:59:39;26.77;;;20.20;;
317;SDS011;146;53.448;10.228;2024-02-21T02:02:26;26.80;;;19.67;;
317;SDS011;146;53.448;10.228;2024-02-21T02:05:14;23.17;;;20.43;;
317;SDS011;146;53.448;10.228;2024-02-21T02:08:04;33.27;;;20.93;;
317;SDS011;146;53.448;10.228;2024-02-21T02:10:52;28.37;;;20.00;;
317;SDS011;146;53.448;10.228;2024-02-21T02:13:39;27.20;;;20.80;;
317;SDS011;146;53.448;10.228;2024-02-21T02:16:28;26.47;;;19.93;;
317;SDS011;146;53.448;10.228;2024-02-21T02:19:15;29.13;;;22.63;;
317;SDS011;146;53.448;10.228;2024-02-21T02:22:05;26.80;;;20.80;;
317;SDS011;146;53.448;10.228;2024-02-21T02:24:57;30.77;;;22.20;;
317;SDS011;146;53.448;10.228;2024-02-21T02:27:45;29.00;;;22.70;;
317;SDS011;146;53.448;10.228;2024-02-21T02:30:32;31.30;;;23.30;;
317;SDS011;146;53.448;10.228;2024-02-21T02:33:21;30.90;;;23.50;;
317;SDS011;146;53.448;10.228;2024-02-21T02:36:08;29.93;;;23.53;;
317;SDS011;146;53.448;10.228;2024-02-21T02:38:55;29.43;;;22.77;;
317;SDS011;146;53.448;10.228;2024-02-21T02:41:44;31.13;;;24.20;;
317;SDS011;146;53.448;10.228;2024-02-21T02:44:31;38.00;;;24.80;;
317;SDS011;146;53.448;10.228;2024-02-21T02:47:18;34.63;;;24.77;;
317;SDS011;146;53.448;10.228;2024-02-21T02:50:05;33.60;;;23.60;;
317;SDS011;146;53.448;10.228;2024-02-21T02:52:53;30.57;;;24.27;;
317;SDS011;146;53.448;10.228;2024-02-21T02:55:40;35.03;;;24.33;;
317;SDS011;146;53.448;10.228;2024-02-21T02:58:29;35.90;;;24.80;;
317;SDS011;146;53.448;10.228;2024-02-21T03:01:16;32.47;;;22.50;;
317;SDS011;146;53.448;10.228;2024-02-21T03:04:03;32.80;;;25.20;;
317;SDS011;146;53.448;10.228;2024-02-21T03:06:53;28.13;;;23.23;;
317;SDS011;146;53.448;10.228;2024-02-21T03:09:40;31.37;;;24.80;;
317;SDS011;146;53.448;10.228;2024-02-21T03:12:28;35.30;;;24.63;;
317;SDS011;146;53.448;10.228;2024-02-21T03:15:16;34.50;;;23.60;;
317;SDS011;146;53.448;10.228;2024-02-21T03:18:04;36.83;;;23.83;;
317;SDS011;146;53.448;10.228;2024-02-21T03:20:51;31.53;;;23.57;;
317;SDS011;146;53.448;10.228;2024-02-21T03:23:38;29.27;;;23.97;;
317;SDS011;146;53.448;10.228;2024-02-21T03:26:25;34.07;;;24.60;;
317;SDS011;146;53.448;10.228;2024-02-21T03:29:12;33.73;;;23.50;;
317;SDS011;146;53.448;10.228;2024-02-21T03:32:02;31.77;;;22.63;;
317;SDS011;146;53.448;10.228;2024-02-21T03:34:49;31.33;;;23.80;;
317;SDS011;146;53.448;10.228;2024-02-21T03:37:36;33.43;;;23.60;;
317;SDS011;146;53.448;10.228;2024-02-21T03:40:24;30.83;;;22.87;;
317;SDS011;146;53.448;10.228;2024-02-21T03:43:12;29.97;;;24.30;;
317;SDS011;146;53.448;10.228;2024-02-21T03:45:59;26.77;;;22.40;;
317;SDS011;146;53.448;10.228;2024-02-21T03:48:48;33.87;;;24.13;;
317;SDS011;146;53.448;10.228;2024-02-21T03:51:35;31.80;;;22.20;;
317;SDS011;146;53.448;10.228;2024-02-21T03:54:22;28.90;;;22.20;;
317;SDS011;146;53.448;10.228;2024-02-21T03:57:28;29.47;;;22.10;;
317;SDS011;146;53.448;10.228;2024-02-21T04:00:15;25.63;;;21.10;;
317;SDS011;146;53.448;10.228;2024-02-21T04:03:03;29.87;;;21.43;;
317;SDS011;146;53.448;10.228;2024-02-21T04:05:53;29.90;;;22.57;;
317;SDS011;146;53.448;10.228;2024-02-21T04:08:40;30.57;;;22.30;;
317;SDS011;146;53.448;10.228;2024-02-21T04:11:27;27.93;;;21.17;;
317;SDS011;146;53.448;10.228;2024-02-21T04:14:15;28.00;;;21.90;;
317;SDS011;146;53.448;10.228;2024-02-21T04:17:02;28.23;;;22.27;;
317;SDS011;146;53.448;10.228;2024-02-21T04:19:50;30.10;;;22.13;;
317;SDS011;146;53.448;10.228;2024-02-21T04:22:48;27.23;;;23.40;;
317;SDS011;146;53.448;10.228;2024-02-21T04:25:35;27.60;;;21.07;;
317;SDS011;146;53.448;10.228;2024-02-21T04:28:23;31.03;;;23.70;;
317;SDS011;146;53.448;10.228;2024-02-21T04:31:10;26.63;;;22.80;;
317;SDS011;146;53.448;10.228;2024-02-21T04:33:57;31.20;;;21.50;;
317;SDS011;146;53.448;10.228;2024-02-21T04:36:44;26.00;;;22.03;;
317;SDS011;146;53.448;10.228;2024-02-21T04:39:33;27.07;;;21.50;;
317;SDS011;146;53.448;10.228;2024-02-21T04:42:20;27.47;;;20.20;;
317;SDS011;146;53.448;10.228;2024-02-21T04:45:07;28.80;;;22.73;;
317;SDS011;146;53.448;10.228;2024-02-21T04:47:55;29.70;;;23.50;;
317;SDS011;146;53.448;10.228;2024-02-21T04:50:42;24.40;;;20.87;;
317;SDS011;146;53.448;10.228;2024-02-21T04:53:29;28.47;;;22.50;;
317;SDS011;146;53.448;10.228;2024-02-21T04:56:18;25.13;;;21.73;;
317;SDS011;146;53.448;10.228;2024-02-21T04:59:05;27.60;;;21.20;;
317;SDS011;146;53.448;10.228;2024-02-21T05:01:52;28.73;;;21.43;;
317;SDS011;146;53.448;10.228;2024-02-21T05:04:39;26.37;;;22.30;;
317;SDS011;146;53.448;10.228;2024-02-21T05:07:27;30.10;;;21.80;;
317;SDS011;146;53.448;10.228;2024-02-21T05:10:14;23.70;;;19.73;;
317;SDS011;146;53.448;10.228;2024-02-21T05:13:04;25.90;;;21.17;;
317;SDS011;146;53.448;10.228;2024-02-21T05:15:51;29.10;;;21.43;;
317;SDS011;146;53.448;10.228;2024-02-21T05:18:39;26.60;;;21.60;;
317;SDS011;146;53.448;10.228;2024-02-21T05:21:28;23.40;;;20.07;;
317;SDS011;146;53.448;10.228;2024-02-21T05:24:15;23.10;;;18.10;;
317;SDS011;146;53.448;10.228;2024-02-21T05:27:02;24.17;;;21.37;;
317;SDS011;146;53.448;10.228;2024-02-21T05:29:50;27.20;;;20.20;;
317;SDS011;146;53.448;10.228;2024-02-21T05:32:37;26.63;;;20.57;;
317;SDS011;146;53.448;10.228;2024-02-21T05:35:25;25.37;;;21.67;;
317;SDS011;146;53.448;10.228;2024-02-21T05:38:13;22.13;;;19.43;;
317;SDS011;146;53.448;10.228;2024-02-21T05:41:00;25.73;;;20.27;;
317;SDS011;146;53.448;10.228;2024-02-21T05:43:47;26.80;;;20.83;;
317;SDS011;146;53.448;10.228;2024-02-21T05:46:36;23.17;;;20.40;;
317;SDS011;146;53.448;10.228;2024-02-21T05:49:23;25.27;;;17.90;;
317;SDS011;146;53.448;10.228;2024-02-21T05:52:10;24.47;;;18.80;;
317;SDS011;146;53.448;10.228;2024-02-21T05:54:57;23.43;;;19.60;;
317;SDS011;146;53.448;10.228;2024-02-21T05:57:44;23.20;;;18.83;;
317;SDS011;146;53.448;10.228;2024-02-21T06:00:31;22.27;;;18.27;;
317;SDS011;146;53.448;10.228;2024-02-21T06:03:20;26.67;;;18.87;;
317;SDS011;146;53.448;10.228;2024-02-21T06:06:07;20.53;;;17.00;;
317;SDS011;146;53.448;10.228;2024-02-21T06:08:54;27.63;;;17.33;;
317;SDS011;146;53.448;10.228;2024-02-21T06:11:41;21.67;;;16.83;;
317;SDS011;146;53.448;10.228;2024-02-21T06:14:28;18.43;;;15.30;;
317;SDS011;146;53.448;10.228;2024-02-21T06:17:15;18.93;;;15.37;;
317;SDS011;146;53.448;10.228;2024-02-21T06:20:04;19.43;;;15.60;;
317;SDS011;146;53.448;10.228;2024-02-21T06:22:52;17.70;;;14.63;;
317;SDS011;146;53.448;10.228;2024-02-21T06:25:40;16.20;;;13.77;;
317;SDS011;146;53.448;10.228;2024-02-21T06:28:27;16.70;;;14.50;;
317;SDS011;146;53.448;10.228;2024-02-21T06:31:14;17.93;;;14.97;;
317;SDS011;146;53.448;10.228;2024-02-21T06:34:03;18.60;;;14.27;;
317;SDS011;146;53.448;10.228;2024-02-21T06:36:51;16.20;;;13.63;;
317;SDS011;146;53.448;10.228;2024-02-21T06:39:39;15.83;;;14.13;;
317;SDS011;146;53.448;10.228;2024-02-21T06:42:28;18.17;;;13.93;;
317;SDS011;146;53.448;10.228;2024-02-21T06:48:57;18.63;;;13.93;;
317;SDS011;146;53.448;10.228;2024-02-21T06:51:47;13.50;;;11.70;;
317;SDS011;146;53.448;10.228;2024-02-21T06:54:36;15.03;;;13.53;;
317;SDS011;146;53.448;10.228;2024-02-21T06:57:25;15.50;;;11.87;;
317;SDS011;146;53.448;10.228;2024-02-21T07:00:13;15.47;;;13.13;;
317;SDS011;146;53.448;10.228;2024-02-21T07:05:37;15.53;;;12.10;;
317;SDS011;146;53.448;10.228;2024-02-21T07:08:24;15.10;;;11.97;;
317;SDS011;146;53.448;10.228;2024-02-21T07:11:15;13.77;;;11.90;;
317;SDS011;146;53.448;10.228;2024-02-21T07:17:53;13.73;;;11.97;;
317;SDS011;146;53.448;10.228;2024-02-21T07:20:40;14.37;;;12.37;;
317;SDS011;146;53.448;10.228;2024-02-21T07:23:27;13.80;;;11.73;;
317;SDS011;146;53.448;10.228;2024-02-21T07:26:14;11.57;;;10.37;;
317;SDS011;146;53.448;10.228;2024-02-21T07:29:01;13.83;;;11.13;;
317;SDS011;146;53.448;10.228;2024-02-21T07:31:49;11.80;;;9.90;;
317;SDS011;146;53.448;10.228;2024-02-21T07:34:38;12.03;;;10.80;;
317;SDS011;146;53.448;10.228;2024-02-21T07:37:25;12.67;;;11.10;;
317;SDS011;146;53.448;10.228;2024-02-21T07:40:13;13.30;;;10.70;;
317;SDS011;146;53.448;10.228;2024-02-21T07:43:01;12.10;;;10.90;;
317;SDS011;146;53.448;10.228;2024-02-21T07:45:48;11.67;;;10.20;;
317;SDS011;146;53.448;10.228;2024-02-21T07:48:35;10.47;;;9.43;;
317;SDS011;146;53.448;10.228;2024-02-21T07:51:23;11.07;;;10.13;;
317;SDS011;146;53.448;10.228;2024-02-21T07:54:14;9.97;;;9.00;;
317;SDS011;146;53.448;10.228;2024-02-21T07:57:01;10.53;;;9.53;;
317;SDS011;146;53.448;10.228;2024-02-21T07:59:48;8.40;;;7.60;;
317;SDS011;146;53.448;10.228;2024-02-21T08:02:35;8.03;;;7.33;;
317;SDS011;146;53.448;10.228;2024-02-21T08:05:23;9.73;;;7.30;;
317;SDS011;146;53.448;10.228;2024-02-21T08:08:11;6.37;;;5.77;;
317;SDS011;146;53.448;10.228;2024-02-21T08:11:03;6.77;;;6.17;;
317;SDS011;146;53.448;10.228;2024-02-21T08:13:50;6.43;;;5.80;;
317;SDS011;146;53.448;10.228;2024-02-21T08:16:37;6.10;;;5.60;;
317;SDS011;146;53.448;10.228;2024-02-21T08:19:25;5.20;;;4.70;;
317;SDS011;146;53.448;10.228;2024-02-21T08:22:12;4.93;;;4.53;;
317;SDS011;146;53.448;10.228;2024-02-21T08:25:00;5.53;;;5.00;;
317;SDS011;146;53.448;10.228;2024-02-21T08:27:50;4.77;;;4.37;;
317;SDS011;146;53.448;10.228;2024-02-21T08:30:38;5.67;;;4.73;;
317;SDS011;146;53.448;10.228;2024-02-21T08:33:25;5.90;;;5.30;;
317;SDS011;146;53.448;10.228;2024-02-21T08:36:16;5.80;;;5.30;;
317;SDS011;146;53.448;10.228;2024-02-21T08:39:04;5.37;;;4.83;;
317;SDS011;146;53.448;10.228;2024-02-21T08:41:53;6.33;;;4.80;;
317;SDS011;146;53.448;10.228;2024-02-21T08:44:40;6.10;;;5.50;;
317;SDS011;146;53.448;10.228;2024-02-21T08:51:10;5.23;;;4.83;;
317;SDS011;146;53.448;10.228;2024-02-21T08:53:57;7.90;;;5.13;;
317;SDS011;146;53.448;10.228;2024-02-21T08:56:46;5.50;;;5.00;;
317;SDS011;146;53.448;10.228;2024-02-21T08:59:34;5.97;;;5.37;;
317;SDS011;146;53.448;10.228;2024-02-21T09:02:21;8.40;;;5.83;;
317;SDS011;146;53.448;10.228;2024-02-21T09:05:08;6.83;;;6.23;;
317;SDS011;146;53.448;10.228;2024-02-21T09:07:56;7.10;;;6.50;;
317;SDS011;146;53.448;10.228;2024-02-21T09:10:43;7.00;;;6.33;;
317;SDS011;146;53.448;10.228;2024-02-21T09:13:36;5.73;;;5.23;;
317;SDS011;146;53.448;10.228;2024-02-21T09:16:24;6.57;;;5.80;;
317;SDS011;146;53.448;10.228;2024-02-21T09:19:12;7.03;;;6.33;;
317;SDS011;146;53.448;10.228;2024-02-21T09:21:59;7.77;;;6.97;;
317;SDS011;146;53.448;10.228;2024-02-21T09:24:46;6.90;;;6.30;;
317;SDS011;146;53.448;10.228;2024-02-21T09:27:33;6.93;;;6.33;;
317;SDS011;146;53.448;10.228;2024-02-21T09:30:20;6.80;;;6.20;;
317;SDS011;146;53.448;10.228;2024-02-21T09:33:09;7.43;;;6.67;;
317;SDS011;146;53.448;10.228;2024-02-21T09:35:56;7.43;;;6.73;;
317;SDS011;146;53.448;10.228;2024-02-21T09:38:43;8.20;;;7.40;;
317;SDS011;146;53.448;10.228;2024-02-21T09:41:30;7.63;;;6.90;;
317;SDS011;146;53.448;10.228;2024-02-21T09:44:20;8.10;;;7.30;;
317;SDS011;146;53.448;10.228;2024-02-21T09:47:09;8.37;;;7.57;;
317;SDS011;146;53.448;10.228;2024-02-21T09:50:01;8.53;;;7.67;;
317;SDS011;146;53.448;10.228;2024-02-21T09:52:49;8.63;;;7.83;;
317;SDS011;146;53.448;10.228;2024-02-21T09:55:38;8.47;;;7.67;;
317;SDS011;146;53.448;10.228;2024-02-21T09:58:26;10.97;;;9.27;;
317;SDS011;146;53.448;10.228;2024-02-21T10:01:14;9.57;;;8.13;;
317;SDS011;146;53.448;10.228;2024-02-21T10:04:02;10.40;;;9.37;;
317;SDS011;146;53.448;10.228;2024-02-21T10:06:51;12.20;;;9.03;;
317;SDS011;146;53.448;10.228;2024-02-21T10:09:40;12.53;;;10.93;;
317;SDS011;146;53.448;10.228;2024-02-21T10:12:27;17.13;;;12.20;;
317;SDS011;146;53.448;10.228;2024-02-21T10:15:19;13.70;;;11.30;;
317;SDS011;146;53.448;10.228;2024-02-21T10:18:06;13.70;;;11.60;;
317;SDS011;146;53.448;10.228;2024-02-21T10:20:59;16.33;;;13.90;;
317;SDS011;146;53.448;10.228;2024-02-21T10:23:49;16.80;;;12.40;;
317;SDS011;146;53.448;10.228;2024-02-21T10:26:36;19.50;;;15.00;;
317;SDS011;146;53.448;10.228;2024-02-21T10:29:23;18.93;;;15.07;;
317;SDS011;146;53.448;10.228;2024-02-21T10:32:11;18.40;;;14.67;;
317;SDS011;146;53.448;10.228;2024-02-21T10:35:03;19.97;;;17.07;;
317;SDS011;146;53.448;10.228;2024-02-21T10:37:51;19.10;;;15.80;;
317;SDS011;146;53.448;10.228;2024-02-21T10:40:42;24.93;;;16.30;;
317;SDS011;146;53.448;10.228;2024-02-21T10:43:30;19.23;;;16.10;;
317;SDS011;146;53.448;10.228;2024-02-21T10:46:24;24.63;;;17.43;;
317;SDS011;146;53.448;10.228;2024-02-21T10:49:12;28.30;;;17.60;;
317;SDS011;146;53.448;10.228;2024-02-21T10:52:06;29.87;;;18.20;;
317;SDS011;146;53.448;10.228;2024-02-21T10:55:02;23.93;;;17.90;;
317;SDS011;146;53.448;10.228;2024-02-21T10:57:52;24.63;;;18.63;;
317;SDS011;146;53.448;10.228;2024-02-21T11:00:40;19.77;;;17.50;;
317;SDS011;146;53.448;10.228;2024-02-21T11:03:28;22.33;;;16.60;;
317;SDS011;146;53.448;10.228;2024-02-21T11:06:16;21.07;;;15.47;;
317;SDS011;146;53.448;10.228;2024-02-21T11:09:06;23.47;;;16.30;;
317;SDS011;146;53.448;10.228;2024-02-21T11:11:54;19.63;;;15.70;;
317;SDS011;146;53.448;10.228;2024-02-21T11:14:45;20.50;;;15.13;;
317;SDS011;146;53.448;10.228;2024-02-21T11:17:33;19.33;;;15.10;;
317;SDS011;146;53.448;10.228;2024-02-21T11:20:20;19.40;;;14.10;;
317;SDS011;146;53.448;10.228;2024-02-21T11:23:24;19.67;;;13.90;;
317;SDS011;146;53.448;10.228;2024-02-21T11:26:18;19.00;;;13.63;;
317;SDS011;146;53.448;10.228;2024-02-21T11:29:06;16.90;;;13.50;;
317;SDS011;146;53.448;10.228;2024-02-21T11:31:56;17.77;;;12.90;;
317;SDS011;146;53.448;10.228;2024-02-21T11:34:52;15.80;;;12.70;;
317;SDS011;146;53.448;10.228;2024-02-21T11:37:40;17.03;;;11.70;;
317;SDS011;146;53.448;10.228;2024-02-21T11:40:31;18.30;;;11.57;;
317;SDS011;146;53.448;10.228;2024-02-21T11:43:20;13.70;;;12.20;;
317;SDS011;146;53.448;10.228;2024-02-21T11:46:07;14.97;;;12.00;;
317;SDS011;146;53.448;10.228;2024-02-21T11:48:56;15.57;;;10.40;;
317;SDS011;146;53.448;10.228;2024-02-21T11:51:45;16.07;;;12.40;;
317;SDS011;146;53.448;10.228;2024-02-21T11:54:34;14.17;;;10.47;;
317;SDS011;146;53.448;10.228;2024-02-21T11:57:21;12.50;;;11.20;;
317;SDS011;146;53.448;10.228;2024-02-21T12:00:12;12.50;;;11.07;;
317;SDS011;146;53.448;10.228;2024-02-21T12:03:00;14.07;;;12.03;;
317;SDS011;146;53.448;10.228;2024-02-21T12:05:49;15.63;;;12.37;;
317;SDS011;146;53.448;10.228;2024-02-21T12:08:42;13.40;;;11.37;;
317;SDS011;146;53.448;10.228;2024-02-21T12:11:30;15.77;;;12.50;;
317;SDS011;146;53.448;10.228;2024-02-21T12:14:17;15.43;;;11.50;;
317;SDS011;146;53.448;10.228;2024-02-21T12:17:04;13.73;;;11.00;;
317;SDS011;146;53.448;10.228;2024-02-21T12:19:52;13.07;;;11.20;;
317;SDS011;146;53.448;10.228;2024-02-21T12:22:41;18.50;;;12.10;;
317;SDS011;146;53.448;10.228;2024-02-21T12:29:11;17.40;;;12.17;;
317;SDS011;146;53.448;10.228;2024-02-21T12:31:58;16.43;;;13.40;;
317;SDS011;146;53.448;10.228;2024-02-21T12:34:45;14.50;;;12.53;;
317;SDS011;146;53.448;10.228;2024-02-21T12:37:32;17.17;;;12.77;;
317;SDS011;146;53.448;10.228;2024-02-21T12:40:21;18.27;;;13.77;;
317;SDS011;146;53.448;10.228;2024-02-21T12:43:08;19.57;;;15.93;;
317;SDS011;146;53.448;10.228;2024-02-21T12:45:55;18.00;;;14.63;;
317;SDS011;146;53.448;10.228;2024-02-21T12:48:42;16.53;;;14.83;;
317;SDS011;146;53.448;10.228;2024-02-21T12:51:29;17.23;;;15.10;;
317;SDS011;146;53.448;10.228;2024-02-21T12:54:17;18.33;;;16.13;;
317;SDS011;146;53.448;10.228;2024-02-21T12:57:05;18.13;;;16.23;;
317;SDS011;146;53.448;10.228;2024-02-21T12:59:52;21.67;;;16.70;;
317;SDS011;146;53.448;10.228;2024-02-21T13:02:39;15.93;;;14.40;;
317;SDS011;146;53.448;10.228;2024-02-21T13:05:26;18.93;;;15.70;;
317;SDS011;146;53.448;10.228;2024-02-21T13:08:14;17.90;;;16.00;;
317;SDS011;146;53.448;10.228;2024-02-21T13:11:01;21.37;;;17.10;;
317;SDS011;146;53.448;10.228;2024-02-21T13:13:49;18.97;;;16.93;;
317;SDS011;146;53.448;10.228;2024-02-21T13:16:36;18.83;;;15.63;;
317;SDS011;146;53.448;10.228;2024-02-21T13:19:25;20.23;;;18.17;;
317;SDS011;146;53.448;10.228;2024-02-21T13:22:12;19.30;;;17.10;;
317;SDS011;146;53.448;10.228;2024-02-21T13:24:59;17.50;;;15.30;;
317;SDS011;146;53.448;10.228;2024-02-21T13:27:47;19.33;;;16.83;;
317;SDS011;146;53.448;10.228;2024-02-21T13:30:35;17.43;;;15.20;;
317;SDS011;146;53.448;10.228;2024-02-21T13:33:22;19.90;;;14.50;;
317;SDS011;146;53.448;10.228;2024-02-21T13:36:09;17.20;;;15.40;;
317;SDS011;146;53.448;10.228;2024-02-21T13:38:59;16.80;;;15.17;;
317;SDS011;146;53.448;10.228;2024-02-21T13:41:46;19.60;;;16.73;;
317;SDS011;146;53.448;10.228;2024-02-21T13:44:34;18.30;;;15.70;;
317;SDS011;146;53.448;10.228;2024-02-21T13:47:24;16.87;;;15.00;;
317;SDS011;146;53.448;10.228;2024-02-21T13:50:11;21.77;;;18.90;;
317;SDS011;146;53.448;10.228;2024-02-21T13:52:59;20.23;;;17.03;;
317;SDS011;146;53.448;10.228;2024-02-21T13:55:46;22.47;;;18.37;;
317;SDS011;146;53.448;10.228;2024-02-21T13:58:34;20.57;;;18.27;;
317;SDS011;146;53.448;10.228;2024-02-21T14:01:21;20.20;;;18.27;;
317;SDS011;146;53.448;10.228;2024-02-21T14:04:09;17.50;;;15.70;;
317;SDS011;146;53.448;10.228;2024-02-21T14:07:07;17.13;;;15.53;;
317;SDS011;146;53.448;10.228;2024-02-21T14:09:54;16.43;;;14.80;;
317;SDS011;146;53.448;10.228;2024-02-21T14:12:41;15.90;;;14.30;;
317;SDS011;146;53.448;10.228;2024-02-21T14:15:28;15.43;;;13.93;;
317;SDS011;146;53.448;10.228;2024-02-21T14:18:15;16.83;;;15.13;;
317;SDS011;146;53.448;10.228;2024-02-21T14:21:04;15.57;;;14.07;;
317;SDS011;146;53.448;10.228;2024-02-21T14:23:51;15.00;;;13.60;;
317;SDS011;146;53.448;10.228;2024-02-21T14:26:39;14.73;;;13.33;;
317;SDS011;146;53.448;10.228;2024-02-21T14:29:26;17.37;;;13.67;;
317;SDS011;146;53.448;10.228;2024-02-21T14:32:14;15.00;;;13.57;;
317;SDS011;146;53.448;10.228;2024-02-21T14:35:01;14.40;;;13.20;;
317;SDS011;146;53.448;10.228;2024-02-21T14:37:50;13.67;;;12.27;;
317;SDS011;146;53.448;10.228;2024-02-21T14:40:38;13.80;;;12.50;;
317;SDS011;146;53.448;10.228;2024-02-21T14:43:25;15.10;;;13.13;;
317;SDS011;146;53.448;10.228;2024-02-21T14:46:13;13.50;;;12.20;;
317;SDS011;146;53.448;10.228;2024-02-21T14:49:01;12.63;;;11.53;;
317;SDS011;146;53.448;10.228;2024-02-21T14:51:48;13.70;;;12.40;;
317;SDS011;146;53.448;10.228;2024-02-21T14:54:36;12.77;;;10.97;;
317;SDS011;146;53.448;10.228;2024-02-21T14:57:24;11.83;;;10.90;;
317;SDS011;146;53.448;10.228;2024-02-21T15:00:12;18.20;;;12.03;;
317;SDS011;146;53.448;10.228;2024-02-21T15:03:00;12.07;;;11.17;;
317;SDS011;146;53.448;10.228;2024-02-21T15:05:48;12.07;;;10.97;;
317;SDS011;146;53.448;10.228;2024-02-21T15:08:35;11.40;;;10.37;;
317;SDS011;146;53.448;10.228;2024-02-21T15:11:23;11.13;;;10.10;;
317;SDS011;146;53.448;10.228;2024-02-21T15:14:10;11.73;;;10.67;;
317;SDS011;146;53.448;10.228;2024-02-21T15:16:57;11.27;;;10.33;;
317;SDS011;146;53.448;10.228;2024-02-21T15:19:45;12.43;;;9.77;;
317;SDS011;146;53.448;10.228;2024-02-21T15:22:32;11.83;;;10.10;;
317;SDS011;146;53.448;10.228;2024-02-21T15:25:22;12.50;;;10.03;;
317;SDS011;146;53.448;10.228;2024-02-21T15:28:12;10.00;;;8.90;;
317;SDS011;146;53.448;10.228;2024-02-21T15:30:59;9.77;;;8.23;;
317;SDS011;146;53.448;10.228;2024-02-21T15:33:46;9.40;;;8.50;;
317;SDS011;146;53.448;10.228;2024-02-21T15:36:33;8.37;;;7.77;;
317;SDS011;146;53.448;10.228;2024-02-21T15:39:21;7.13;;;6.50;;
317;SDS011;146;53.448;10.228;2024-02-21T15:42:12;8.27;;;7.67;;
317;SDS011;146;53.448;10.228;2024-02-21T15:45:00;8.17;;;7.47;;
317;SDS011;146;53.448;10.228;2024-02-21T15:47:50;8.10;;;7.40;;
317;SDS011;146;53.448;10.228;2024-02-21T15:50:39;7.33;;;6.63;;
317;SDS011;146;53.448;10.228;2024-02-21T16:09:47;7.33;;;6.73;;
317;SDS011;146;53.448;10.228;2024-02-21T16:12:34;7.63;;;6.93;;
317;SDS011;146;53.448;10.228;2024-02-21T16:15:23;6.47;;;6.00;;
317;SDS011;146;53.448;10.228;2024-02-21T16:18:10;6.90;;;6.40;;
317;SDS011;146;53.448;10.228;2024-02-21T16:20:57;8.47;;;6.50;;
317;SDS011;146;53.448;10.228;2024-02-21T16:23:45;9.20;;;6.33;;
317;SDS011;146;53.448;10.228;2024-02-21T16:26:35;6.67;;;6.17;;
317;SDS011;146;53.448;10.228;2024-02-21T16:29:22;7.00;;;6.03;;
317;SDS011;146;53.448;10.228;2024-02-21T16:32:09;6.40;;;5.80;;
317;SDS011;146;53.448;10.228;2024-02-21T16:34:56;7.43;;;6.70;;
317;SDS011;146;53.448;10.228;2024-02-21T16:37:43;7.17;;;6.60;;
317;SDS011;146;53.448;10.228;2024-02-21T16:40:31;6.93;;;6.43;;
317;SDS011;146;53.448;10.228;2024-02-21T16:43:19;6.33;;;5.43;;
317;SDS011;146;53.448;10.228;2024-02-21T16:46:07;5.00;;;4.70;;
317;SDS011;146;53.448;10.228;2024-02-21T16:48:54;6.80;;;6.20;;
317;SDS011;146;53.448;10.228;2024-02-21T16:51:41;6.50;;;6.00;;
317;SDS011;146;53.448;10.228;2024-02-21T16:54:28;5.30;;;4.87;;
317;SDS011;146;53.448;10.228;2024-02-21T16:57:15;5.50;;;5.07;;
317;SDS011;146;53.448;10.228;2024-02-21T17:00:07;6.53;;;5.60;;
317;SDS011;146;53.448;10.228;2024-02-21T17:02:56;6.90;;;6.20;;
317;SDS011;146;53.448;10.228;2024-02-21T17:05:45;5.60;;;5.10;;
317;SDS011;146;53.448;10.228;2024-02-21T17:08:32;6.70;;;5.50;;
317;SDS011;146;53.448;10.228;2024-02-21T17:11:19;5.73;;;5.23;;
317;SDS011;146;53.448;10.228;2024-02-21T17:14:06;6.57;;;5.40;;
317;SDS011;146;53.448;10.228;2024-02-21T17:16:55;8.27;;;5.47;;
317;SDS011;146;53.448;10.228;2024-02-21T17:19:42;6.23;;;5.63;;
317;SDS011;146;53.448;10.228;2024-02-21T17:22:29;7.37;;;6.13;;
317;SDS011;146;53.448;10.228;2024-02-21T17:25:17;7.63;;;6.80;;
317;SDS011;146;53.448;10.228;2024-02-21T17:28:04;7.40;;;6.80;;
317;SDS011;146;53.448;10.228;2024-02-21T17:30:51;7.87;;;6.57;;
317;SDS011;146;53.448;10.228;2024-02-21T17:33:40;7.13;;;5.53;;
317;SDS011;146;53.448;10.228;2024-02-21T17:36:28;6.80;;;6.20;;
317;SDS011;146;53.448;10.228;2024-02-21T17:39:15;9.10;;;6.70;;
317;SDS011;146;53.448;10.228;2024-02-21T17:42:03;7.40;;;6.80;;
317;SDS011;146;53.448;10.228;2024-02-21T17:44:51;9.13;;;6.50;;
317;SDS011;146;53.448;10.228;2024-02-21T17:47:38;9.23;;;8.20;;
317;SDS011;146;53.448;10.228;2024-02-21T17:50:27;8.93;;;7.60;;